Terminal Aerodrome Forecast
Issued by NWS

Home | Current Version | Previous Version | Text Only | Print | Product List | Glossary On
Versions: 1 2 3 4 5 6 7 8 9 10 11 12 13 14 15 16 17 18 19 20
155
FTUS43 KJKL 180530
TAFSME
TAF
KSME 180530Z 1806/1906 VRB03KT P6SM FEW200
     FM181000 VRB03KT 3SM BR FEW150
     FM181300 VRB06KT P6SM FEW200=

USA.gov is the U.S. government's official web portal to all federal, state and local government web resources and services.